GLO9629 SBEG-SBGR
Flight info
| Callsign | GLO9629 |
|---|---|
| Flight time | 3h 31m |
| Altitude | 37000 |
| Route | ETAXA UZ87 OBLUG UZ42 ZARES |
| Aircraft | B738/M-SDFGIKLORWXY/LB1 |
Departure
| Time | 2026-04-26 16:26 |
|---|---|
| Airport | Eduardo Gomes International Airport (SBEG) |
Arrival
| Time | 2026-04-26 19:57 |
|---|---|
| Airport | São Paulo/Guarulhos–Governor André Franco Montoro International Airport (SBGR) |
| Time | Latitude | Longitude | Altitude | Speed | Heading |
|---|---|---|---|---|---|
| 2026-04-26 15:59 | -3.03145 | -60.04047 | 265 ft | 0 kts | 345° |
| 2026-04-26 16:17 | -3.03151 | -60.04045 | 267 ft | 4 kts | 343° |
| 2026-04-26 16:17 | -3.03176 | -60.04036 | 267 ft | 4 kts | 333° |
| 2026-04-26 16:17 | -3.03199 | -60.04022 | 267 ft | 4 kts | 313° |
| 2026-04-26 16:18 | -3.03211 | -60.04002 | 267 ft | 4 kts | 264° |
| 2026-04-26 16:18 | -3.03209 | -60.03992 | 267 ft | 0 kts | 256° |
| 2026-04-26 16:20 | -3.03209 | -60.03993 | 267 ft | 0 kts | 256° |
| 2026-04-26 16:20 | -3.03220 | -60.04037 | 267 ft | 6 kts | 257° |
| 2026-04-26 16:20 | -3.03231 | -60.04080 | 267 ft | 7 kts | 255° |
| 2026-04-26 16:21 | -3.03243 | -60.04124 | 267 ft | 7 kts | 255° |
| 2026-04-26 16:21 | -3.03256 | -60.04174 | 267 ft | 8 kts | 255° |
| 2026-04-26 16:21 | -3.03270 | -60.04226 | 267 ft | 8 kts | 255° |
| 2026-04-26 16:21 | -3.03285 | -60.04284 | 267 ft | 9 kts | 256° |
| 2026-04-26 16:22 | -3.03303 | -60.04347 | 267 ft | 10 kts | 249° |
| 2026-04-26 16:22 | -3.03358 | -60.04383 | 267 ft | 11 kts | 175° |
| 2026-04-26 16:22 | -3.03429 | -60.04362 | 267 ft | 11 kts | 159° |
| 2026-04-26 16:22 | -3.03493 | -60.04327 | 267 ft | 11 kts | 143° |
| 2026-04-26 16:23 | -3.03549 | -60.04269 | 267 ft | 13 kts | 124° |
| 2026-04-26 16:23 | -3.03591 | -60.04177 | 267 ft | 16 kts | 104° |
| 2026-04-26 16:23 | -3.03624 | -60.04065 | 267 ft | 17 kts | 105° |
| 2026-04-26 16:23 | -3.03655 | -60.03953 | 267 ft | 16 kts | 105° |
| 2026-04-26 16:24 | -3.03684 | -60.03847 | 267 ft | 14 kts | 108° |
| 2026-04-26 16:24 | -3.03741 | -60.03779 | 268 ft | 13 kts | 154° |
| 2026-04-26 16:24 | -3.03752 | -60.03775 | 268 ft | 0 kts | 159° |
| 2026-04-26 16:24 | -3.03757 | -60.03773 | 268 ft | 4 kts | 159° |
| 2026-04-26 16:25 | -3.03820 | -60.03775 | 267 ft | 14 kts | 204° |
| 2026-04-26 16:25 | -3.03862 | -60.03933 | 267 ft | 50 kts | 270° |
| 2026-04-26 16:25 | -3.03860 | -60.04514 | 269 ft | 115 kts | 270° |
| 2026-04-26 16:25 | -3.03852 | -60.05496 | 270 ft | 168 kts | 272° |
| 2026-04-26 16:26 | -3.03848 | -60.06722 | 828 ft | 176 kts | 271° |
| 2026-04-26 16:26 | -3.03838 | -60.07564 | 1317 ft | 183 kts | 271° |
| 2026-04-26 16:26 | -3.03835 | -60.09381 | 2038 ft | 210 kts | 269° |
| 2026-04-26 16:26 | -3.04114 | -60.10866 | 2602 ft | 229 kts | 244° |
| 2026-04-26 16:27 | -3.05251 | -60.12081 | 2795 ft | 254 kts | 206° |
| 2026-04-26 16:27 | -3.06994 | -60.12439 | 3270 ft | 264 kts | 172° |
| 2026-04-26 16:27 | -3.08666 | -60.11762 | 4021 ft | 261 kts | 137° |
| 2026-04-26 16:27 | -3.09709 | -60.10360 | 5007 ft | 247 kts | 111° |
| 2026-04-26 16:28 | -3.10237 | -60.08741 | 5716 ft | 247 kts | 95° |
| 2026-04-26 16:28 | -3.09917 | -60.07106 | 6328 ft | 246 kts | 57° |
| 2026-04-26 16:28 | -3.08665 | -60.05977 | 6826 ft | 249 kts | 25° |
| 2026-04-26 16:28 | -3.06906 | -60.05544 | 6990 ft | 276 kts | 4° |
| 2026-04-26 16:29 | -3.04986 | -60.05869 | 7019 ft | 285 kts | 337° |
| 2026-04-26 16:29 | -3.03418 | -60.07082 | 7491 ft | 291 kts | 309° |
| 2026-04-26 16:29 | -3.02558 | -60.08915 | 8371 ft | 296 kts | 283° |
| 2026-04-26 16:29 | -3.02553 | -60.10981 | 9203 ft | 302 kts | 256° |
| 2026-04-26 16:30 | -3.03439 | -60.12886 | 10062 ft | 305 kts | 231° |
| 2026-04-26 16:30 | -3.05060 | -60.14284 | 10580 ft | 316 kts | 207° |
| 2026-04-26 16:30 | -3.07215 | -60.14923 | 10752 ft | 333 kts | 182° |
| 2026-04-26 16:30 | -3.09531 | -60.14676 | 11207 ft | 338 kts | 161° |
| 2026-04-26 16:31 | -3.11590 | -60.13557 | 11817 ft | 339 kts | 137° |
| 2026-04-26 16:31 | -3.13114 | -60.11781 | 12492 ft | 338 kts | 122° |
| 2026-04-26 16:31 | -3.14358 | -60.09766 | 13102 ft | 343 kts | 118° |
| 2026-04-26 16:31 | -3.15523 | -60.07696 | 13735 ft | 347 kts | 117° |
| 2026-04-26 16:32 | -3.16706 | -60.05584 | 14349 ft | 350 kts | 118° |
| 2026-04-26 16:32 | -3.17521 | -60.04152 | 14771 ft | 351 kts | 118° |
| 2026-04-26 16:32 | -3.19161 | -60.01333 | 15552 ft | 357 kts | 119° |
| 2026-04-26 16:32 | -3.20435 | -59.99184 | 16166 ft | 360 kts | 120° |
| 2026-04-26 16:33 | -3.21730 | -59.97019 | 16756 ft | 364 kts | 120° |
| 2026-04-26 16:33 | -3.23044 | -59.94831 | 17346 ft | 368 kts | 120° |
| 2026-04-26 16:33 | -3.24365 | -59.92636 | 17918 ft | 371 kts | 120° |
| 2026-04-26 16:33 | -3.25705 | -59.90410 | 18466 ft | 374 kts | 120° |
| 2026-04-26 16:34 | -3.27056 | -59.88164 | 18947 ft | 377 kts | 120° |
| 2026-04-26 16:34 | -3.28399 | -59.85933 | 19431 ft | 380 kts | 120° |
| 2026-04-26 16:34 | -3.29772 | -59.83652 | 19939 ft | 383 kts | 120° |
| 2026-04-26 16:34 | -3.31312 | -59.81466 | 20451 ft | 386 kts | 130° |
| 2026-04-26 16:35 | -3.33255 | -59.79591 | 20950 ft | 390 kts | 139° |
| 2026-04-26 16:35 | -3.35517 | -59.78062 | 21416 ft | 395 kts | 148° |
| 2026-04-26 16:35 | -3.37931 | -59.76719 | 21878 ft | 399 kts | 149° |
| 2026-04-26 16:35 | -3.40390 | -59.75396 | 22326 ft | 402 kts | 150° |
| 2026-04-26 16:36 | -3.42866 | -59.74071 | 22771 ft | 405 kts | 149° |
| 2026-04-26 16:36 | -3.45363 | -59.72728 | 23224 ft | 408 kts | 149° |
| 2026-04-26 16:36 | -3.47830 | -59.71390 | 23633 ft | 411 kts | 149° |
| 2026-04-26 16:36 | -3.50344 | -59.70018 | 24019 ft | 412 kts | 149° |
| 2026-04-26 16:37 | -3.52864 | -59.68637 | 24429 ft | 413 kts | 149° |
| 2026-04-26 16:37 | -3.55396 | -59.67245 | 24833 ft | 415 kts | 149° |
| 2026-04-26 16:37 | -3.57933 | -59.65849 | 25211 ft | 416 kts | 149° |
| 2026-04-26 16:37 | -3.60478 | -59.64448 | 25590 ft | 418 kts | 149° |
| 2026-04-26 16:38 | -3.63033 | -59.63040 | 25974 ft | 420 kts | 149° |
| 2026-04-26 16:38 | -3.65604 | -59.61624 | 26342 ft | 422 kts | 149° |
| 2026-04-26 16:38 | -3.68179 | -59.60205 | 26717 ft | 423 kts | 149° |
| 2026-04-26 16:38 | -3.70765 | -59.58781 | 27076 ft | 425 kts | 149° |
| 2026-04-26 16:39 | -3.73361 | -59.57351 | 27426 ft | 427 kts | 149° |
| 2026-04-26 16:39 | -3.75968 | -59.55915 | 27768 ft | 429 kts | 149° |
| 2026-04-26 16:39 | -3.78558 | -59.54488 | 28104 ft | 431 kts | 149° |
| 2026-04-26 16:39 | -3.81188 | -59.53039 | 28440 ft | 432 kts | 149° |
| 2026-04-26 16:40 | -3.83829 | -59.51584 | 28753 ft | 434 kts | 149° |
| 2026-04-26 16:40 | -3.86481 | -59.50123 | 29081 ft | 436 kts | 149° |
| 2026-04-26 16:40 | -3.89149 | -59.48653 | 29392 ft | 438 kts | 149° |
| 2026-04-26 16:40 | -3.91828 | -59.47176 | 29702 ft | 439 kts | 149° |
| 2026-04-26 16:41 | -3.94517 | -59.45694 | 29997 ft | 441 kts | 149° |
| 2026-04-26 16:41 | -3.97210 | -59.44210 | 30264 ft | 442 kts | 149° |
| 2026-04-26 16:41 | -3.99909 | -59.42722 | 30532 ft | 443 kts | 149° |
| 2026-04-26 16:41 | -4.02585 | -59.41247 | 30784 ft | 445 kts | 149° |
| 2026-04-26 16:42 | -4.05294 | -59.39753 | 31022 ft | 446 kts | 149° |
| 2026-04-26 16:42 | -4.08024 | -59.38248 | 31259 ft | 448 kts | 149° |
| 2026-04-26 16:42 | -4.10756 | -59.36741 | 31500 ft | 449 kts | 149° |
| 2026-04-26 16:42 | -4.13505 | -59.35225 | 31732 ft | 450 kts | 149° |
| 2026-04-26 16:43 | -4.16254 | -59.33709 | 31956 ft | 452 kts | 149° |
| 2026-04-26 16:43 | -4.19018 | -59.32188 | 32179 ft | 453 kts | 149° |
| 2026-04-26 16:43 | -4.21794 | -59.30680 | 32388 ft | 455 kts | 149° |
| 2026-04-26 16:43 | -4.24585 | -59.29178 | 32607 ft | 456 kts | 149° |
| 2026-04-26 16:44 | -4.27376 | -59.27680 | 32927 ft | 454 kts | 149° |
| 2026-04-26 16:44 | -4.30159 | -59.26187 | 33321 ft | 451 kts | 149° |
| 2026-04-26 16:44 | -4.32913 | -59.24708 | 33668 ft | 449 kts | 149° |
| 2026-04-26 16:44 | -4.35636 | -59.23243 | 33950 ft | 449 kts | 149° |
| 2026-04-26 16:45 | -4.38385 | -59.21761 | 34166 ft | 449 kts | 149° |
| 2026-04-26 16:45 | -4.41138 | -59.20277 | 34391 ft | 449 kts | 149° |
| 2026-04-26 16:45 | -4.43894 | -59.18790 | 34638 ft | 449 kts | 149° |
| 2026-04-26 16:45 | -4.46641 | -59.17308 | 34883 ft | 448 kts | 149° |
| 2026-04-26 16:46 | -4.49387 | -59.15826 | 35103 ft | 448 kts | 149° |
| 2026-04-26 16:46 | -4.52134 | -59.14344 | 35329 ft | 448 kts | 149° |
| 2026-04-26 16:46 | -4.54884 | -59.12860 | 35563 ft | 448 kts | 149° |
| 2026-04-26 16:46 | -4.57626 | -59.11380 | 35784 ft | 447 kts | 149° |
| 2026-04-26 16:47 | -4.60341 | -59.09915 | 35931 ft | 449 kts | 149° |
| 2026-04-26 16:47 | -4.63099 | -59.08426 | 36067 ft | 451 kts | 149° |
| 2026-04-26 16:47 | -4.65860 | -59.06936 | 36305 ft | 450 kts | 149° |
| 2026-04-26 16:47 | -4.68618 | -59.05447 | 36584 ft | 448 kts | 149° |
| 2026-04-26 16:48 | -4.71367 | -59.03964 | 36813 ft | 448 kts | 149° |
| 2026-04-26 16:48 | -4.74117 | -59.02479 | 36931 ft | 449 kts | 149° |
| 2026-04-26 16:48 | -4.79595 | -58.99520 | 36937 ft | 449 kts | 149° |
| 2026-04-26 16:49 | -4.85091 | -58.96552 | 36936 ft | 446 kts | 149° |
| 2026-04-26 16:49 | -4.90556 | -58.93600 | 36930 ft | 445 kts | 149° |
| 2026-04-26 16:50 | -4.95995 | -58.90661 | 36927 ft | 443 kts | 149° |
| 2026-04-26 16:50 | -5.01390 | -58.87746 | 36928 ft | 442 kts | 149° |
| 2026-04-26 16:51 | -5.06824 | -58.84809 | 36932 ft | 443 kts | 149° |
| 2026-04-26 16:51 | -5.12224 | -58.81889 | 36930 ft | 443 kts | 149° |
| 2026-04-26 16:52 | -5.15862 | -58.79922 | 36929 ft | 444 kts | 149° |
| 2026-04-26 16:52 | -5.23121 | -58.75996 | 36938 ft | 446 kts | 149° |
| 2026-04-26 16:53 | -5.28593 | -58.73036 | 36934 ft | 447 kts | 149° |
| 2026-04-26 16:53 | -5.34054 | -58.70081 | 36928 ft | 448 kts | 149° |
| 2026-04-26 16:54 | -5.39547 | -58.67109 | 36933 ft | 448 kts | 149° |
| 2026-04-26 16:54 | -5.45045 | -58.64133 | 36927 ft | 449 kts | 149° |
| 2026-04-26 16:55 | -5.50502 | -58.61179 | 36933 ft | 448 kts | 149° |
| 2026-04-26 16:55 | -5.55993 | -58.58205 | 36920 ft | 448 kts | 149° |
| 2026-04-26 16:56 | -5.63304 | -58.54246 | 36919 ft | 448 kts | 149° |
| 2026-04-26 16:57 | -5.68793 | -58.51272 | 36924 ft | 447 kts | 149° |
| 2026-04-26 16:57 | -5.76994 | -58.46828 | 36932 ft | 446 kts | 149° |
| 2026-04-26 16:58 | -5.81537 | -58.44366 | 36924 ft | 445 kts | 149° |
| 2026-04-26 16:59 | -5.90606 | -58.39449 | 36934 ft | 445 kts | 149° |
| 2026-04-26 17:00 | -6.01532 | -58.33521 | 36934 ft | 447 kts | 149° |
| 2026-04-26 17:00 | -6.09756 | -58.29059 | 36931 ft | 448 kts | 149° |
| 2026-04-26 17:01 | -6.15255 | -58.26074 | 36930 ft | 449 kts | 150° |
| 2026-04-26 17:01 | -6.20731 | -58.23101 | 36933 ft | 450 kts | 150° |
| 2026-04-26 17:02 | -6.26257 | -58.20100 | 36923 ft | 452 kts | 150° |
| 2026-04-26 17:02 | -6.31791 | -58.17093 | 36921 ft | 453 kts | 150° |
| 2026-04-26 17:03 | -6.37348 | -58.14074 | 36924 ft | 454 kts | 150° |
| 2026-04-26 17:03 | -6.42880 | -58.11068 | 36921 ft | 454 kts | 150° |
| 2026-04-26 17:04 | -6.48442 | -58.08045 | 36931 ft | 455 kts | 150° |
| 2026-04-26 17:04 | -6.54013 | -58.05016 | 36933 ft | 455 kts | 150° |
| 2026-04-26 17:05 | -6.59547 | -58.02006 | 36924 ft | 455 kts | 150° |
| 2026-04-26 17:05 | -6.65108 | -57.98981 | 36923 ft | 454 kts | 150° |
| 2026-04-26 17:06 | -6.70668 | -57.95956 | 36929 ft | 453 kts | 150° |
| 2026-04-26 17:06 | -6.76212 | -57.92938 | 36930 ft | 453 kts | 150° |
| 2026-04-26 17:07 | -6.81749 | -57.89923 | 36927 ft | 452 kts | 150° |
| 2026-04-26 17:07 | -6.87243 | -57.86932 | 36929 ft | 451 kts | 150° |
| 2026-04-26 17:08 | -6.92760 | -57.83926 | 36927 ft | 451 kts | 150° |
| 2026-04-26 17:08 | -6.98290 | -57.80913 | 36928 ft | 450 kts | 149° |
| 2026-04-26 17:09 | -7.02868 | -57.78418 | 36927 ft | 450 kts | 149° |
| 2026-04-26 17:09 | -7.09306 | -57.74908 | 36927 ft | 450 kts | 150° |
| 2026-04-26 17:10 | -7.14773 | -57.71927 | 36928 ft | 450 kts | 150° |
| 2026-04-26 17:10 | -7.20280 | -57.68923 | 36927 ft | 450 kts | 150° |
| 2026-04-26 17:11 | -7.25790 | -57.65917 | 36925 ft | 450 kts | 150° |
| 2026-04-26 17:11 | -7.31302 | -57.62908 | 36929 ft | 450 kts | 150° |
| 2026-04-26 17:12 | -7.39584 | -57.58387 | 36920 ft | 451 kts | 150° |
| 2026-04-26 17:13 | -7.47833 | -57.53881 | 36927 ft | 451 kts | 150° |
| 2026-04-26 17:14 | -7.56107 | -57.49360 | 36918 ft | 450 kts | 150° |
| 2026-04-26 17:14 | -7.64366 | -57.44845 | 36922 ft | 450 kts | 150° |
| 2026-04-26 17:15 | -7.72584 | -57.40350 | 36918 ft | 450 kts | 150° |
| 2026-04-26 17:16 | -7.78109 | -57.37327 | 36925 ft | 451 kts | 150° |
| 2026-04-26 17:16 | -7.83632 | -57.34304 | 36922 ft | 452 kts | 150° |
| 2026-04-26 17:17 | -7.89131 | -57.31294 | 36927 ft | 453 kts | 150° |
| 2026-04-26 17:17 | -7.94682 | -57.28254 | 36923 ft | 454 kts | 150° |
| 2026-04-26 17:18 | -8.00248 | -57.25205 | 36919 ft | 455 kts | 150° |
| 2026-04-26 17:18 | -8.05829 | -57.22151 | 37003 ft | 461 kts | 150° |
| 2026-04-26 17:18 | -8.08654 | -57.20600 | 37180 ft | 461 kts | 150° |
| 2026-04-26 17:19 | -8.14263 | -57.17519 | 37873 ft | 454 kts | 150° |
| 2026-04-26 17:19 | -8.17041 | -57.15997 | 38050 ft | 455 kts | 150° |
| 2026-04-26 17:19 | -8.19827 | -57.14471 | 38149 ft | 457 kts | 150° |
| 2026-04-26 17:20 | -8.22593 | -57.12954 | 38253 ft | 458 kts | 150° |
| 2026-04-26 17:20 | -8.24485 | -57.11916 | 38362 ft | 458 kts | 150° |
| 2026-04-26 17:20 | -8.28197 | -57.09880 | 38673 ft | 456 kts | 150° |
| 2026-04-26 17:20 | -8.30979 | -57.08354 | 38913 ft | 453 kts | 150° |
| 2026-04-26 17:21 | -8.36557 | -57.05294 | 38923 ft | 458 kts | 150° |
| 2026-04-26 17:21 | -8.42133 | -57.02232 | 38920 ft | 458 kts | 150° |
| 2026-04-26 17:22 | -8.47738 | -56.99152 | 38922 ft | 458 kts | 150° |
| 2026-04-26 17:22 | -8.53346 | -56.96069 | 38919 ft | 458 kts | 150° |
| 2026-04-26 17:23 | -8.58948 | -56.92990 | 38919 ft | 457 kts | 150° |
| 2026-04-26 17:23 | -8.64502 | -56.89936 | 38914 ft | 457 kts | 150° |
| 2026-04-26 17:24 | -8.70084 | -56.86866 | 38910 ft | 456 kts | 150° |
| 2026-04-26 17:24 | -8.75648 | -56.83802 | 38916 ft | 455 kts | 150° |
| 2026-04-26 17:25 | -8.81200 | -56.80747 | 38909 ft | 454 kts | 150° |
| 2026-04-26 17:25 | -8.86710 | -56.77719 | 38909 ft | 453 kts | 150° |
| 2026-04-26 17:26 | -8.92233 | -56.74675 | 38913 ft | 451 kts | 150° |
| 2026-04-26 17:26 | -8.97754 | -56.71631 | 38903 ft | 450 kts | 150° |
| 2026-04-26 17:27 | -9.03245 | -56.68604 | 38902 ft | 449 kts | 150° |
| 2026-04-26 17:27 | -9.08722 | -56.65584 | 38902 ft | 447 kts | 150° |
| 2026-04-26 17:28 | -9.14156 | -56.62589 | 38905 ft | 447 kts | 151° |
| 2026-04-26 17:28 | -9.19610 | -56.59579 | 38905 ft | 446 kts | 151° |
| 2026-04-26 17:29 | -9.24147 | -56.57073 | 38910 ft | 447 kts | 150° |
| 2026-04-26 17:29 | -9.30543 | -56.53540 | 38915 ft | 448 kts | 150° |
| 2026-04-26 17:30 | -9.36028 | -56.50511 | 38909 ft | 449 kts | 150° |
| 2026-04-26 17:30 | -9.41520 | -56.47477 | 38916 ft | 450 kts | 150° |
| 2026-04-26 17:31 | -9.46992 | -56.44452 | 38911 ft | 451 kts | 150° |
| 2026-04-26 17:31 | -9.52523 | -56.41393 | 38908 ft | 452 kts | 150° |
| 2026-04-26 17:32 | -9.58054 | -56.38333 | 38905 ft | 453 kts | 150° |
| 2026-04-26 17:32 | -9.63584 | -56.35273 | 38910 ft | 454 kts | 150° |
| 2026-04-26 17:33 | -9.69154 | -56.32189 | 38914 ft | 455 kts | 150° |
| 2026-04-26 17:34 | -9.77473 | -56.27582 | 38911 ft | 455 kts | 150° |
| 2026-04-26 17:34 | -9.83034 | -56.24504 | 38907 ft | 455 kts | 150° |
| 2026-04-26 17:35 | -9.88574 | -56.21431 | 38961 ft | 454 kts | 150° |
| 2026-04-26 17:35 | -9.94122 | -56.18352 | 38963 ft | 454 kts | 150° |
| 2026-04-26 17:36 | -9.99659 | -56.15278 | 38956 ft | 453 kts | 150° |
| 2026-04-26 17:36 | -10.05160 | -56.12225 | 38946 ft | 452 kts | 150° |
| 2026-04-26 17:37 | -10.10673 | -56.09162 | 38935 ft | 451 kts | 150° |
| 2026-04-26 17:37 | -10.16187 | -56.06098 | 38924 ft | 451 kts | 150° |
| 2026-04-26 17:38 | -10.24456 | -56.01505 | 38913 ft | 451 kts | 150° |
| 2026-04-26 17:38 | -10.29965 | -55.98440 | 38906 ft | 452 kts | 150° |
| 2026-04-26 17:39 | -10.35490 | -55.95364 | 38913 ft | 452 kts | 151° |
| 2026-04-26 17:39 | -10.41007 | -55.92294 | 38907 ft | 452 kts | 151° |
| 2026-04-26 17:40 | -10.44672 | -55.90254 | 38911 ft | 452 kts | 151° |
| 2026-04-26 17:40 | -10.52024 | -55.86158 | 38907 ft | 453 kts | 151° |
| 2026-04-26 17:41 | -10.57547 | -55.83081 | 38906 ft | 453 kts | 151° |
| 2026-04-26 17:41 | -10.63073 | -55.80000 | 38909 ft | 453 kts | 151° |
| 2026-04-26 17:42 | -10.68597 | -55.76918 | 38910 ft | 453 kts | 151° |
| 2026-04-26 17:42 | -10.74126 | -55.73834 | 38907 ft | 453 kts | 151° |
| 2026-04-26 17:43 | -10.79627 | -55.70762 | 38906 ft | 453 kts | 151° |
| 2026-04-26 17:43 | -10.85146 | -55.67680 | 38911 ft | 453 kts | 151° |
| 2026-04-26 17:44 | -10.89736 | -55.65116 | 38909 ft | 453 kts | 151° |
| 2026-04-26 17:44 | -10.95268 | -55.62024 | 38902 ft | 453 kts | 151° |
| 2026-04-26 17:45 | -11.00793 | -55.58934 | 38909 ft | 453 kts | 151° |
| 2026-04-26 17:45 | -11.06331 | -55.55837 | 38913 ft | 454 kts | 151° |
| 2026-04-26 17:46 | -11.11876 | -55.52733 | 38913 ft | 455 kts | 151° |
| 2026-04-26 17:46 | -11.17394 | -55.49643 | 38905 ft | 455 kts | 150° |
| 2026-04-26 17:47 | -11.22021 | -55.47051 | 38892 ft | 456 kts | 151° |
| 2026-04-26 17:47 | -11.28598 | -55.43526 | 38907 ft | 457 kts | 154° |
| 2026-04-26 17:48 | -11.34398 | -55.40816 | 38913 ft | 458 kts | 155° |
| 2026-04-26 17:48 | -11.40192 | -55.38136 | 38902 ft | 459 kts | 155° |
| 2026-04-26 17:49 | -11.45991 | -55.35410 | 38911 ft | 459 kts | 155° |
| 2026-04-26 17:49 | -11.51761 | -55.32676 | 38903 ft | 459 kts | 155° |
| 2026-04-26 17:50 | -11.57560 | -55.29925 | 38898 ft | 459 kts | 155° |
| 2026-04-26 17:50 | -11.63319 | -55.27193 | 38900 ft | 459 kts | 155° |
| 2026-04-26 17:51 | -11.69105 | -55.24447 | 38904 ft | 458 kts | 155° |
| 2026-04-26 17:51 | -11.74890 | -55.21699 | 38899 ft | 458 kts | 154° |
| 2026-04-26 17:52 | -11.80518 | -55.18651 | 38902 ft | 457 kts | 150° |
| 2026-04-26 17:52 | -11.86047 | -55.15434 | 38901 ft | 457 kts | 150° |
| 2026-04-26 17:53 | -11.91547 | -55.12248 | 38899 ft | 457 kts | 150° |
| 2026-04-26 17:54 | -11.99887 | -55.07480 | 38896 ft | 457 kts | 150° |
| 2026-04-26 17:54 | -12.05413 | -55.04330 | 38895 ft | 457 kts | 151° |
| 2026-04-26 17:55 | -12.10976 | -55.01157 | 38893 ft | 458 kts | 151° |
| 2026-04-26 17:55 | -12.16549 | -54.97975 | 38898 ft | 459 kts | 150° |
| 2026-04-26 17:56 | -12.22109 | -54.94798 | 38894 ft | 460 kts | 150° |
| 2026-04-26 17:57 | -12.33324 | -54.88386 | 38897 ft | 462 kts | 150° |
| 2026-04-26 17:57 | -12.38951 | -54.85166 | 38907 ft | 463 kts | 150° |
| 2026-04-26 17:58 | -12.50192 | -54.78769 | 38899 ft | 464 kts | 151° |
| 2026-04-26 17:59 | -12.58692 | -54.74025 | 38877 ft | 463 kts | 151° |
| 2026-04-26 17:59 | -12.64352 | -54.70849 | 38885 ft | 463 kts | 151° |
| 2026-04-26 18:00 | -12.69993 | -54.67663 | 38886 ft | 462 kts | 151° |
| 2026-04-26 18:00 | -12.75598 | -54.64494 | 38888 ft | 462 kts | 151° |
| 2026-04-26 18:01 | -12.81231 | -54.61308 | 38887 ft | 462 kts | 151° |
| 2026-04-26 18:01 | -12.86868 | -54.58120 | 38886 ft | 461 kts | 151° |
| 2026-04-26 18:02 | -12.91545 | -54.55481 | 38883 ft | 461 kts | 151° |
| 2026-04-26 18:02 | -12.98095 | -54.51789 | 38891 ft | 461 kts | 151° |
| 2026-04-26 18:03 | -13.03720 | -54.48616 | 38886 ft | 461 kts | 150° |
| 2026-04-26 18:03 | -13.09333 | -54.45447 | 38898 ft | 460 kts | 151° |
| 2026-04-26 18:04 | -13.14911 | -54.42294 | 38877 ft | 460 kts | 151° |
| 2026-04-26 18:05 | -13.23329 | -54.37534 | 38879 ft | 460 kts | 151° |
| 2026-04-26 18:05 | -13.28928 | -54.34367 | 38894 ft | 460 kts | 151° |
| 2026-04-26 18:06 | -13.34547 | -54.31186 | 38885 ft | 460 kts | 151° |
| 2026-04-26 18:06 | -13.40133 | -54.28022 | 38897 ft | 461 kts | 151° |
| 2026-04-26 18:07 | -13.45751 | -54.24837 | 38891 ft | 461 kts | 151° |
| 2026-04-26 18:07 | -13.51368 | -54.21652 | 38894 ft | 461 kts | 151° |
| 2026-04-26 18:08 | -13.57000 | -54.18458 | 38899 ft | 461 kts | 151° |
| 2026-04-26 18:08 | -13.62618 | -54.15268 | 38896 ft | 461 kts | 151° |
| 2026-04-26 18:09 | -13.68234 | -54.12079 | 38896 ft | 461 kts | 151° |
| 2026-04-26 18:09 | -13.73824 | -54.08902 | 38899 ft | 461 kts | 151° |
| 2026-04-26 18:10 | -13.79448 | -54.05705 | 38895 ft | 461 kts | 151° |
| 2026-04-26 18:10 | -13.85072 | -54.02505 | 38902 ft | 461 kts | 151° |
| 2026-04-26 18:11 | -13.90639 | -53.99336 | 38901 ft | 461 kts | 151° |
| 2026-04-26 18:11 | -13.96255 | -53.96137 | 38896 ft | 461 kts | 151° |
| 2026-04-26 18:12 | -14.01869 | -53.92939 | 38900 ft | 460 kts | 151° |
| 2026-04-26 18:12 | -14.07474 | -53.89743 | 38901 ft | 460 kts | 151° |
| 2026-04-26 18:13 | -14.13051 | -53.86561 | 38901 ft | 460 kts | 151° |
| 2026-04-26 18:13 | -14.18651 | -53.83364 | 38903 ft | 460 kts | 151° |
| 2026-04-26 18:14 | -14.24250 | -53.80166 | 38902 ft | 460 kts | 151° |
| 2026-04-26 18:14 | -14.29857 | -53.76961 | 38902 ft | 460 kts | 151° |
| 2026-04-26 18:15 | -14.35459 | -53.73757 | 38912 ft | 460 kts | 151° |
| 2026-04-26 18:15 | -14.41063 | -53.70557 | 38903 ft | 460 kts | 152° |
| 2026-04-26 18:16 | -14.46747 | -53.67603 | 38905 ft | 460 kts | 154° |
| 2026-04-26 18:16 | -14.55351 | -53.63201 | 38903 ft | 460 kts | 154° |
| 2026-04-26 18:17 | -14.60978 | -53.60036 | 38910 ft | 460 kts | 150° |
| 2026-04-26 18:17 | -14.66501 | -53.56699 | 38911 ft | 460 kts | 150° |
| 2026-04-26 18:18 | -14.72005 | -53.53385 | 38910 ft | 460 kts | 150° |
| 2026-04-26 18:18 | -14.77562 | -53.50073 | 38910 ft | 460 kts | 150° |
| 2026-04-26 18:19 | -14.83117 | -53.46771 | 38914 ft | 460 kts | 150° |
| 2026-04-26 18:19 | -14.88629 | -53.43492 | 38907 ft | 460 kts | 150° |
| 2026-04-26 18:20 | -14.94183 | -53.40184 | 38910 ft | 460 kts | 150° |
| 2026-04-26 18:20 | -14.97899 | -53.37969 | 38914 ft | 460 kts | 150° |
| 2026-04-26 18:21 | -15.05320 | -53.33596 | 38906 ft | 460 kts | 152° |
| 2026-04-26 18:21 | -15.10933 | -53.30382 | 38904 ft | 461 kts | 152° |
| 2026-04-26 18:22 | -15.16510 | -53.27185 | 38907 ft | 461 kts | 152° |
| 2026-04-26 18:22 | -15.22125 | -53.23951 | 38907 ft | 461 kts | 152° |
| 2026-04-26 18:23 | -15.27725 | -53.20719 | 38899 ft | 461 kts | 152° |
| 2026-04-26 18:23 | -15.33331 | -53.17482 | 38902 ft | 461 kts | 152° |
| 2026-04-26 18:24 | -15.38897 | -53.14266 | 38900 ft | 461 kts | 152° |
| 2026-04-26 18:24 | -15.44494 | -53.11031 | 38898 ft | 460 kts | 152° |
| 2026-04-26 18:25 | -15.50086 | -53.07796 | 38897 ft | 460 kts | 152° |
| 2026-04-26 18:25 | -15.55679 | -53.04557 | 38898 ft | 460 kts | 152° |
| 2026-04-26 18:26 | -15.61272 | -53.01315 | 38899 ft | 460 kts | 152° |
| 2026-04-26 18:26 | -15.66848 | -52.98081 | 38903 ft | 459 kts | 152° |
| 2026-04-26 18:27 | -15.72404 | -52.94856 | 38894 ft | 459 kts | 152° |
| 2026-04-26 18:27 | -15.77995 | -52.91609 | 38897 ft | 459 kts | 152° |
| 2026-04-26 18:28 | -15.83578 | -52.88364 | 38899 ft | 459 kts | 152° |
| 2026-04-26 18:28 | -15.89151 | -52.85123 | 38902 ft | 459 kts | 152° |
| 2026-04-26 18:29 | -15.94697 | -52.81896 | 38897 ft | 459 kts | 152° |
| 2026-04-26 18:29 | -16.00280 | -52.78645 | 38899 ft | 459 kts | 152° |
| 2026-04-26 18:30 | -16.05866 | -52.75390 | 38904 ft | 460 kts | 152° |
| 2026-04-26 18:30 | -16.11458 | -52.72130 | 38904 ft | 460 kts | 152° |
| 2026-04-26 18:31 | -16.17008 | -52.68892 | 38907 ft | 460 kts | 152° |
| 2026-04-26 18:31 | -16.22602 | -52.65626 | 38905 ft | 461 kts | 152° |
| 2026-04-26 18:32 | -16.27252 | -52.62910 | 38901 ft | 461 kts | 152° |
| 2026-04-26 18:32 | -16.32854 | -52.59636 | 38911 ft | 461 kts | 152° |
| 2026-04-26 18:33 | -16.38472 | -52.56350 | 38907 ft | 462 kts | 152° |
| 2026-04-26 18:33 | -16.44045 | -52.53088 | 38909 ft | 462 kts | 152° |
| 2026-04-26 18:34 | -16.49651 | -52.49804 | 38909 ft | 462 kts | 152° |
| 2026-04-26 18:34 | -16.55270 | -52.46510 | 38910 ft | 463 kts | 152° |
| 2026-04-26 18:35 | -16.60886 | -52.43216 | 38913 ft | 463 kts | 152° |
| 2026-04-26 18:35 | -16.66497 | -52.39924 | 38913 ft | 463 kts | 152° |
| 2026-04-26 18:36 | -16.72086 | -52.36653 | 38916 ft | 463 kts | 152° |
| 2026-04-26 18:36 | -16.77706 | -52.33362 | 38915 ft | 463 kts | 152° |
| 2026-04-26 18:37 | -16.83323 | -52.30070 | 38916 ft | 463 kts | 152° |
| 2026-04-26 18:37 | -16.88936 | -52.26776 | 38918 ft | 463 kts | 152° |
| 2026-04-26 18:38 | -16.94523 | -52.23495 | 38924 ft | 463 kts | 152° |
| 2026-04-26 18:38 | -17.00141 | -52.20194 | 38929 ft | 463 kts | 152° |
| 2026-04-26 18:39 | -17.05754 | -52.16894 | 38933 ft | 463 kts | 152° |
| 2026-04-26 18:39 | -17.11385 | -52.13622 | 38934 ft | 463 kts | 152° |
| 2026-04-26 18:40 | -17.17038 | -52.10359 | 38930 ft | 463 kts | 152° |
| 2026-04-26 18:40 | -17.22650 | -52.07112 | 38938 ft | 463 kts | 152° |
| 2026-04-26 18:41 | -17.28291 | -52.03842 | 38936 ft | 463 kts | 153° |
| 2026-04-26 18:41 | -17.33931 | -52.00568 | 38940 ft | 463 kts | 153° |
| 2026-04-26 18:42 | -17.39601 | -51.97275 | 38950 ft | 468 kts | 153° |
| 2026-04-26 18:42 | -17.45297 | -51.93964 | 38951 ft | 474 kts | 153° |
| 2026-04-26 18:43 | -17.51079 | -51.90600 | 38947 ft | 477 kts | 153° |
| 2026-04-26 18:43 | -17.56890 | -51.87216 | 38940 ft | 478 kts | 153° |
| 2026-04-26 18:44 | -17.62717 | -51.83821 | 38938 ft | 478 kts | 153° |
| 2026-04-26 18:44 | -17.68531 | -51.80431 | 38933 ft | 478 kts | 153° |
| 2026-04-26 18:45 | -17.74308 | -51.77060 | 38940 ft | 477 kts | 153° |
| 2026-04-26 18:45 | -17.80106 | -51.73675 | 38932 ft | 476 kts | 153° |
| 2026-04-26 18:46 | -17.85886 | -51.70297 | 38934 ft | 475 kts | 153° |
| 2026-04-26 18:46 | -17.91657 | -51.66922 | 38939 ft | 474 kts | 153° |
| 2026-04-26 18:47 | -17.97412 | -51.63554 | 38936 ft | 473 kts | 153° |
| 2026-04-26 18:47 | -18.03173 | -51.60180 | 38932 ft | 473 kts | 153° |
| 2026-04-26 18:48 | -18.08904 | -51.56821 | 38922 ft | 473 kts | 153° |
| 2026-04-26 18:48 | -18.14652 | -51.53449 | 38927 ft | 473 kts | 153° |
| 2026-04-26 18:49 | -18.20397 | -51.50076 | 38930 ft | 473 kts | 153° |
| 2026-04-26 18:49 | -18.26145 | -51.46698 | 38922 ft | 473 kts | 152° |
| 2026-04-26 18:50 | -18.31844 | -51.43217 | 38926 ft | 474 kts | 151° |
| 2026-04-26 18:50 | -18.37526 | -51.39679 | 38924 ft | 474 kts | 151° |
| 2026-04-26 18:51 | -18.43211 | -51.36158 | 38923 ft | 474 kts | 152° |
| 2026-04-26 18:51 | -18.48914 | -51.32635 | 38916 ft | 475 kts | 152° |
| 2026-04-26 18:52 | -18.54593 | -51.29122 | 38917 ft | 475 kts | 151° |
| 2026-04-26 18:52 | -18.60297 | -51.25585 | 38920 ft | 476 kts | 151° |
| 2026-04-26 18:53 | -18.66020 | -51.22034 | 38907 ft | 476 kts | 151° |
| 2026-04-26 18:53 | -18.71741 | -51.18481 | 38912 ft | 476 kts | 151° |
| 2026-04-26 18:54 | -18.77428 | -51.14946 | 38912 ft | 477 kts | 151° |
| 2026-04-26 18:54 | -18.83147 | -51.11389 | 38909 ft | 477 kts | 151° |
| 2026-04-26 18:55 | -18.88868 | -51.07827 | 38906 ft | 477 kts | 151° |
| 2026-04-26 18:55 | -18.94585 | -51.04264 | 38904 ft | 477 kts | 151° |
| 2026-04-26 18:56 | -19.00276 | -51.00716 | 38901 ft | 477 kts | 151° |
| 2026-04-26 18:56 | -19.05956 | -50.97081 | 38897 ft | 477 kts | 150° |
| 2026-04-26 18:57 | -19.10679 | -50.93966 | 38899 ft | 477 kts | 150° |
| 2026-04-26 18:57 | -19.17236 | -50.89639 | 38898 ft | 478 kts | 150° |
| 2026-04-26 18:58 | -19.22883 | -50.85928 | 38902 ft | 478 kts | 150° |
| 2026-04-26 18:58 | -19.28532 | -50.82218 | 38897 ft | 478 kts | 150° |
| 2026-04-26 18:59 | -19.34185 | -50.78504 | 38899 ft | 478 kts | 150° |
| 2026-04-26 18:59 | -19.39811 | -50.74804 | 38898 ft | 478 kts | 150° |
| 2026-04-26 19:00 | -19.45468 | -50.71080 | 38902 ft | 478 kts | 150° |
| 2026-04-26 19:00 | -19.51121 | -50.67355 | 38906 ft | 479 kts | 150° |
| 2026-04-26 19:01 | -19.56783 | -50.63621 | 38902 ft | 479 kts | 149° |
| 2026-04-26 19:01 | -19.62411 | -50.59906 | 38901 ft | 479 kts | 149° |
| 2026-04-26 19:02 | -19.68035 | -50.56203 | 38899 ft | 480 kts | 150° |
| 2026-04-26 19:02 | -19.72844 | -50.53101 | 38907 ft | 480 kts | 150° |
| 2026-04-26 19:03 | -19.79490 | -50.48831 | 38904 ft | 480 kts | 150° |
| 2026-04-26 19:03 | -19.85202 | -50.45145 | 38905 ft | 481 kts | 150° |
| 2026-04-26 19:04 | -19.90922 | -50.41445 | 38907 ft | 481 kts | 150° |
| 2026-04-26 19:04 | -19.96638 | -50.37744 | 38901 ft | 481 kts | 150° |
| 2026-04-26 19:05 | -20.05227 | -50.32177 | 38910 ft | 482 kts | 150° |
| 2026-04-26 19:06 | -20.10950 | -50.28464 | 38901 ft | 482 kts | 150° |
| 2026-04-26 19:06 | -20.16749 | -50.24895 | 38909 ft | 481 kts | 153° |
| 2026-04-26 19:07 | -20.22622 | -50.21471 | 38905 ft | 481 kts | 153° |
| 2026-04-26 19:07 | -20.28492 | -50.18038 | 38903 ft | 481 kts | 153° |
| 2026-04-26 19:08 | -20.34351 | -50.14574 | 38912 ft | 482 kts | 152° |
| 2026-04-26 19:08 | -20.40179 | -50.11108 | 38908 ft | 482 kts | 152° |
| 2026-04-26 19:09 | -20.46043 | -50.07616 | 38910 ft | 482 kts | 152° |
| 2026-04-26 19:09 | -20.51904 | -50.04123 | 38904 ft | 483 kts | 152° |
| 2026-04-26 19:10 | -20.57785 | -50.00617 | 38909 ft | 483 kts | 152° |
| 2026-04-26 19:10 | -20.63659 | -49.97112 | 38911 ft | 483 kts | 152° |
| 2026-04-26 19:11 | -20.69500 | -49.93623 | 38915 ft | 484 kts | 152° |
| 2026-04-26 19:11 | -20.75388 | -49.90104 | 38908 ft | 485 kts | 152° |
| 2026-04-26 19:12 | -20.81274 | -49.86582 | 38906 ft | 485 kts | 152° |
| 2026-04-26 19:12 | -20.87172 | -49.83050 | 38908 ft | 485 kts | 152° |
| 2026-04-26 19:13 | -20.93066 | -49.79517 | 38912 ft | 486 kts | 152° |
| 2026-04-26 19:13 | -20.98969 | -49.75976 | 38908 ft | 487 kts | 152° |
| 2026-04-26 19:14 | -21.04847 | -49.72446 | 38897 ft | 487 kts | 152° |
| 2026-04-26 19:14 | -21.10765 | -49.68889 | 38903 ft | 488 kts | 152° |
| 2026-04-26 19:15 | -21.16700 | -49.65319 | 38905 ft | 488 kts | 152° |
| 2026-04-26 19:15 | -21.22632 | -49.61746 | 38902 ft | 489 kts | 152° |
| 2026-04-26 19:16 | -21.28562 | -49.58172 | 38898 ft | 489 kts | 152° |
| 2026-04-26 19:16 | -21.34463 | -49.54612 | 38902 ft | 489 kts | 152° |
| 2026-04-26 19:17 | -21.40408 | -49.51022 | 38900 ft | 490 kts | 152° |
| 2026-04-26 19:17 | -21.46352 | -49.47430 | 38898 ft | 490 kts | 152° |
| 2026-04-26 19:18 | -21.52309 | -49.43826 | 38901 ft | 491 kts | 152° |
| 2026-04-26 19:18 | -21.58224 | -49.40243 | 38900 ft | 491 kts | 152° |
| 2026-04-26 19:19 | -21.64182 | -49.36632 | 38901 ft | 491 kts | 152° |
| 2026-04-26 19:19 | -21.69143 | -49.33622 | 38897 ft | 492 kts | 152° |
| 2026-04-26 19:20 | -21.75109 | -49.30000 | 38901 ft | 492 kts | 152° |
| 2026-04-26 19:20 | -21.81082 | -49.26369 | 38910 ft | 492 kts | 152° |
| 2026-04-26 19:21 | -21.87050 | -49.22738 | 38899 ft | 493 kts | 152° |
| 2026-04-26 19:21 | -21.92994 | -49.19118 | 38894 ft | 493 kts | 152° |
| 2026-04-26 19:22 | -21.98965 | -49.15478 | 38901 ft | 493 kts | 152° |
| 2026-04-26 19:22 | -22.04950 | -49.11825 | 38919 ft | 494 kts | 152° |
| 2026-04-26 19:23 | -22.10690 | -49.07758 | 38929 ft | 496 kts | 140° |
| 2026-04-26 19:23 | -22.15380 | -49.02283 | 38952 ft | 497 kts | 130° |
| 2026-04-26 19:24 | -22.19846 | -48.96630 | 38949 ft | 497 kts | 131° |
| 2026-04-26 19:24 | -22.26707 | -48.88200 | 38954 ft | 498 kts | 132° |
| 2026-04-26 19:25 | -22.30527 | -48.83546 | 38939 ft | 498 kts | 132° |
| 2026-04-26 19:25 | -22.35887 | -48.76979 | 38943 ft | 498 kts | 132° |
| 2026-04-26 19:26 | -22.40464 | -48.71344 | 38918 ft | 499 kts | 132° |
| 2026-04-26 19:26 | -22.45015 | -48.65737 | 38919 ft | 499 kts | 132° |
| 2026-04-26 19:27 | -22.49601 | -48.60082 | 38913 ft | 499 kts | 132° |
| 2026-04-26 19:27 | -22.54182 | -48.54428 | 38915 ft | 497 kts | 132° |
| 2026-04-26 19:28 | -22.58611 | -48.48950 | 38895 ft | 472 kts | 130° |
| 2026-04-26 19:28 | -22.60508 | -48.46121 | 38906 ft | 458 kts | 121° |
| 2026-04-26 19:28 | -22.61978 | -48.43111 | 38894 ft | 443 kts | 111° |
| 2026-04-26 19:29 | -22.63951 | -48.36906 | 38927 ft | 437 kts | 107° |
| 2026-04-26 19:29 | -22.65897 | -48.30594 | 38938 ft | 447 kts | 107° |
| 2026-04-26 19:30 | -22.67921 | -48.24147 | 38548 ft | 456 kts | 107° |
| 2026-04-26 19:30 | -22.68952 | -48.20885 | 37834 ft | 459 kts | 108° |
| 2026-04-26 19:30 | -22.69641 | -48.18706 | 37361 ft | 462 kts | 108° |
| 2026-04-26 19:31 | -22.71051 | -48.14242 | 36240 ft | 473 kts | 108° |
| 2026-04-26 19:31 | -22.72116 | -48.10869 | 35680 ft | 472 kts | 108° |
| 2026-04-26 19:31 | -22.73170 | -48.07523 | 35200 ft | 466 kts | 108° |
| 2026-04-26 19:31 | -22.74205 | -48.04218 | 34640 ft | 460 kts | 107° |
| 2026-04-26 19:32 | -22.75143 | -48.00933 | 33721 ft | 465 kts | 105° |
| 2026-04-26 19:32 | -22.76060 | -47.97543 | 32741 ft | 469 kts | 105° |
| 2026-04-26 19:32 | -22.77074 | -47.94193 | 32030 ft | 466 kts | 114° |
| 2026-04-26 19:32 | -22.78555 | -47.91108 | 31487 ft | 458 kts | 121° |
| 2026-04-26 19:33 | -22.80122 | -47.88135 | 30965 ft | 451 kts | 120° |
| 2026-04-26 19:33 | -22.81623 | -47.85160 | 30348 ft | 448 kts | 119° |
| 2026-04-26 19:33 | -22.83073 | -47.82182 | 29669 ft | 445 kts | 118° |
| 2026-04-26 19:33 | -22.84499 | -47.79219 | 28978 ft | 441 kts | 118° |
| 2026-04-26 19:34 | -22.85903 | -47.76290 | 28354 ft | 436 kts | 118° |
| 2026-04-26 19:34 | -22.87305 | -47.73370 | 27753 ft | 437 kts | 118° |
| 2026-04-26 19:34 | -22.88712 | -47.70441 | 26647 ft | 452 kts | 118° |
| 2026-04-26 19:34 | -22.90189 | -47.67372 | 25744 ft | 462 kts | 118° |
| 2026-04-26 19:35 | -22.91669 | -47.64294 | 25328 ft | 457 kts | 118° |
| 2026-04-26 19:35 | -22.93129 | -47.61254 | 25022 ft | 450 kts | 118° |
| 2026-04-26 19:35 | -22.94567 | -47.58259 | 24770 ft | 443 kts | 118° |
| 2026-04-26 19:35 | -22.95994 | -47.55287 | 24531 ft | 448 kts | 118° |
| 2026-04-26 19:36 | -22.97449 | -47.52258 | 24272 ft | 455 kts | 118° |
| 2026-04-26 19:36 | -22.98419 | -47.50236 | 24111 ft | 455 kts | 118° |
| 2026-04-26 19:36 | -23.00345 | -47.46217 | 23735 ft | 451 kts | 118° |
| 2026-04-26 19:36 | -23.01797 | -47.43187 | 23406 ft | 450 kts | 118° |
| 2026-04-26 19:37 | -23.03239 | -47.40176 | 23047 ft | 447 kts | 118° |
| 2026-04-26 19:37 | -23.04671 | -47.37183 | 22689 ft | 445 kts | 118° |
| 2026-04-26 19:37 | -23.06092 | -47.34214 | 22311 ft | 442 kts | 118° |
| 2026-04-26 19:37 | -23.07506 | -47.31255 | 21939 ft | 438 kts | 118° |
| 2026-04-26 19:38 | -23.08884 | -47.28372 | 21581 ft | 432 kts | 118° |
| 2026-04-26 19:38 | -23.10258 | -47.25495 | 21224 ft | 426 kts | 118° |
| 2026-04-26 19:38 | -23.11607 | -47.22654 | 20862 ft | 421 kts | 116° |
| 2026-04-26 19:38 | -23.12463 | -47.19639 | 20487 ft | 418 kts | 95° |
| 2026-04-26 19:39 | -23.12343 | -47.16522 | 20167 ft | 410 kts | 76° |
| 2026-04-26 19:39 | -23.11434 | -47.13615 | 19839 ft | 403 kts | 60° |
| 2026-04-26 19:39 | -23.09872 | -47.11125 | 19503 ft | 397 kts | 45° |
| 2026-04-26 19:39 | -23.07986 | -47.08917 | 19150 ft | 400 kts | 43° |
| 2026-04-26 19:40 | -23.06060 | -47.06729 | 18650 ft | 402 kts | 43° |
| 2026-04-26 19:40 | -23.04154 | -47.04542 | 18065 ft | 404 kts | 44° |
| 2026-04-26 19:40 | -23.02220 | -47.02289 | 17422 ft | 400 kts | 45° |
| 2026-04-26 19:40 | -23.00354 | -47.00095 | 16840 ft | 391 kts | 45° |
| 2026-04-26 19:41 | -22.98555 | -46.97976 | 16290 ft | 382 kts | 45° |
| 2026-04-26 19:41 | -22.96776 | -46.95882 | 15758 ft | 372 kts | 45° |
| 2026-04-26 19:41 | -22.95040 | -46.93842 | 15279 ft | 361 kts | 45° |
| 2026-04-26 19:41 | -22.93920 | -46.92526 | 14977 ft | 355 kts | 45° |
| 2026-04-26 19:42 | -22.91713 | -46.89936 | 14356 ft | 344 kts | 45° |
| 2026-04-26 19:42 | -22.90132 | -46.88075 | 14044 ft | 333 kts | 46° |
| 2026-04-26 19:42 | -22.88995 | -46.85937 | 13945 ft | 332 kts | 74° |
| 2026-04-26 19:42 | -22.88891 | -46.83447 | 13892 ft | 334 kts | 101° |
| 2026-04-26 19:43 | -22.89790 | -46.81141 | 13594 ft | 334 kts | 128° |
| 2026-04-26 19:43 | -22.91427 | -46.79392 | 13365 ft | 329 kts | 143° |
| 2026-04-26 19:43 | -22.93236 | -46.77866 | 13111 ft | 329 kts | 145° |
| 2026-04-26 19:43 | -22.95065 | -46.76388 | 12841 ft | 327 kts | 145° |
| 2026-04-26 19:44 | -22.96853 | -46.74945 | 12588 ft | 323 kts | 144° |
| 2026-04-26 19:44 | -22.98446 | -46.73170 | 12206 ft | 325 kts | 127° |
| 2026-04-26 19:44 | -22.99726 | -46.71185 | 11922 ft | 317 kts | 125° |
| 2026-04-26 19:44 | -23.00954 | -46.69233 | 11674 ft | 309 kts | 125° |
| 2026-04-26 19:45 | -23.02163 | -46.67322 | 11446 ft | 314 kts | 125° |
| 2026-04-26 19:45 | -23.03415 | -46.65359 | 11207 ft | 319 kts | 126° |
| 2026-04-26 19:45 | -23.04692 | -46.63371 | 10965 ft | 321 kts | 126° |
| 2026-04-26 19:45 | -23.05982 | -46.61374 | 10720 ft | 322 kts | 126° |
| 2026-04-26 19:46 | -23.07267 | -46.59394 | 10428 ft | 320 kts | 126° |
| 2026-04-26 19:46 | -23.08543 | -46.57430 | 10181 ft | 315 kts | 126° |
| 2026-04-26 19:46 | -23.09802 | -46.55495 | 9943 ft | 312 kts | 126° |
| 2026-04-26 19:46 | -23.11047 | -46.53581 | 9691 ft | 308 kts | 126° |
| 2026-04-26 19:47 | -23.12276 | -46.51693 | 9430 ft | 304 kts | 126° |
| 2026-04-26 19:47 | -23.13083 | -46.50453 | 9259 ft | 301 kts | 125° |
| 2026-04-26 19:47 | -23.14672 | -46.48010 | 8949 ft | 297 kts | 126° |
| 2026-04-26 19:47 | -23.15861 | -46.46183 | 8721 ft | 295 kts | 126° |
| 2026-04-26 19:48 | -23.17045 | -46.44364 | 8488 ft | 295 kts | 126° |
| 2026-04-26 19:48 | -23.18231 | -46.42540 | 8255 ft | 295 kts | 126° |
| 2026-04-26 19:48 | -23.19417 | -46.40715 | 8027 ft | 296 kts | 126° |
| 2026-04-26 19:48 | -23.20607 | -46.38884 | 7796 ft | 296 kts | 126° |
| 2026-04-26 19:49 | -23.21789 | -46.37063 | 7565 ft | 293 kts | 126° |
| 2026-04-26 19:49 | -23.22960 | -46.35258 | 7340 ft | 291 kts | 126° |
| 2026-04-26 19:49 | -23.24113 | -46.33481 | 7097 ft | 283 kts | 126° |
| 2026-04-26 19:49 | -23.25228 | -46.31761 | 6866 ft | 275 kts | 127° |
| 2026-04-26 19:50 | -23.26303 | -46.30103 | 6681 ft | 260 kts | 126° |
| 2026-04-26 19:50 | -23.27318 | -46.28539 | 6474 ft | 246 kts | 126° |
| 2026-04-26 19:50 | -23.28279 | -46.27055 | 6260 ft | 234 kts | 126° |
| 2026-04-26 19:50 | -23.29234 | -46.25665 | 6068 ft | 226 kts | 137° |
| 2026-04-26 19:51 | -23.30558 | -46.24897 | 5888 ft | 211 kts | 176° |
| 2026-04-26 19:51 | -23.31957 | -46.24962 | 5771 ft | 198 kts | 198° |
| 2026-04-26 19:51 | -23.33213 | -46.25436 | 5631 ft | 187 kts | 206° |
| 2026-04-26 19:51 | -23.34426 | -46.25962 | 5437 ft | 187 kts | 205° |
| 2026-04-26 19:52 | -23.35650 | -46.26440 | 5334 ft | 186 kts | 206° |
| 2026-04-26 19:52 | -23.36856 | -46.26942 | 5188 ft | 185 kts | 208° |
| 2026-04-26 19:52 | -23.37829 | -46.27759 | 4988 ft | 172 kts | 249° |
| 2026-04-26 19:52 | -23.38158 | -46.28960 | 4903 ft | 164 kts | 258° |
| 2026-04-26 19:53 | -23.38492 | -46.30137 | 4769 ft | 162 kts | 258° |
| 2026-04-26 19:53 | -23.38826 | -46.31292 | 4637 ft | 156 kts | 256° |
| 2026-04-26 19:53 | -23.39154 | -46.32406 | 4503 ft | 154 kts | 257° |
| 2026-04-26 19:53 | -23.39460 | -46.33514 | 4380 ft | 152 kts | 258° |
| 2026-04-26 19:54 | -23.39752 | -46.34594 | 4293 ft | 144 kts | 259° |
| 2026-04-26 19:54 | -23.40035 | -46.35656 | 4124 ft | 147 kts | 258° |
| 2026-04-26 19:54 | -23.40315 | -46.36712 | 3969 ft | 145 kts | 258° |
| 2026-04-26 19:54 | -23.40597 | -46.37762 | 3767 ft | 148 kts | 258° |
| 2026-04-26 19:55 | -23.40888 | -46.38832 | 3634 ft | 147 kts | 257° |
| 2026-04-26 19:55 | -23.41206 | -46.39875 | 3368 ft | 146 kts | 256° |
| 2026-04-26 19:55 | -23.41488 | -46.40938 | 3249 ft | 143 kts | 259° |
| 2026-04-26 19:55 | -23.41730 | -46.41970 | 3092 ft | 136 kts | 258° |
| 2026-04-26 19:56 | -23.41991 | -46.42940 | 2861 ft | 137 kts | 257° |
| 2026-04-26 19:56 | -23.42252 | -46.43938 | 2672 ft | 136 kts | 259° |
| 2026-04-26 19:56 | -23.42498 | -46.44950 | 2505 ft | 140 kts | 255° |
| 2026-04-26 19:56 | -23.42770 | -46.45908 | 2462 ft | 113 kts | 252° |
| 2026-04-26 19:57 | -23.42936 | -46.46512 | 2464 ft | 55 kts | 253° |
| 2026-04-26 19:57 | -23.43010 | -46.46800 | 2464 ft | 34 kts | 254° |
| 2026-04-26 19:57 | -23.43060 | -46.46994 | 2461 ft | 18 kts | 264° |
| 2026-04-26 19:57 | -23.43063 | -46.47116 | 2459 ft | 15 kts | 272° |
| 2026-04-26 19:58 | -23.43050 | -46.47210 | 2459 ft | 10 kts | 282° |
| 2026-04-26 19:58 | -23.43034 | -46.47280 | 2464 ft | 9 kts | 283° |
| 2026-04-26 19:58 | -23.43020 | -46.47346 | 2463 ft | 9 kts | 283° |
| 2026-04-26 19:58 | -23.43012 | -46.47406 | 2460 ft | 7 kts | 271° |
| 2026-04-26 19:59 | -23.43019 | -46.47461 | 2462 ft | 7 kts | 255° |
| 2026-04-26 19:59 | -23.43033 | -46.47512 | 2461 ft | 7 kts | 254° |
| 2026-04-26 19:59 | -23.43045 | -46.47563 | 2462 ft | 7 kts | 255° |
| 2026-04-26 19:59 | -23.43059 | -46.47612 | 2462 ft | 7 kts | 251° |
| 2026-04-26 20:00 | -23.43075 | -46.47665 | 2462 ft | 8 kts | 251° |
| 2026-04-26 20:00 | -23.43096 | -46.47733 | 2460 ft | 10 kts | 252° |
| 2026-04-26 20:00 | -23.43117 | -46.47817 | 2460 ft | 12 kts | 256° |
| 2026-04-26 20:00 | -23.43142 | -46.47914 | 2462 ft | 14 kts | 253° |
| 2026-04-26 20:01 | -23.43169 | -46.48016 | 2466 ft | 14 kts | 253° |
| 2026-04-26 20:01 | -23.43196 | -46.48113 | 2463 ft | 13 kts | 253° |
| 2026-04-26 20:01 | -23.43221 | -46.48206 | 2462 ft | 13 kts | 254° |
| 2026-04-26 20:01 | -23.43245 | -46.48297 | 2465 ft | 12 kts | 254° |
| 2026-04-26 20:02 | -23.43236 | -46.48386 | 2466 ft | 13 kts | 323° |
| 2026-04-26 20:02 | -23.43149 | -46.48414 | 2463 ft | 13 kts | 343° |
| 2026-04-26 20:02 | -23.43064 | -46.48441 | 2464 ft | 12 kts | 344° |
| 2026-04-26 20:02 | -23.43037 | -46.48450 | 2460 ft | 12 kts | 339° |
| 2026-04-26 20:03 | -23.42993 | -46.48586 | 2465 ft | 12 kts | 276° |
| 2026-04-26 20:03 | -23.42947 | -46.48617 | 2464 ft | 6 kts | 6° |
| 2026-04-26 20:03 | -23.42919 | -46.48614 | 2460 ft | 1 kts | 6° |
| 2026-04-26 20:03 | -23.42915 | -46.48613 | 2460 ft | 0 kts | 6° |